createdAt,value
2023-05-01T00:03:22.077Z,1.69
2023-05-01T00:07:57.464Z,1.66
2023-05-01T00:12:41.945Z,1.60
2023-05-01T00:17:10.049Z,1.55
2023-05-01T00:21:54.060Z,1.53
2023-05-01T00:26:33.139Z,1.51
2023-05-01T00:31:15.690Z,1.51
2023-05-01T00:35:41.969Z,1.50
2023-05-01T00:40:26.314Z,1.46
2023-05-01T00:44:38.475Z,1.36
2023-05-01T00:49:24.051Z,1.22
2023-05-01T00:54:07.850Z,1.14
2023-05-01T00:58:35.215Z,1.03
2023-05-01T01:03:00.662Z,0.94
2023-05-01T01:07:44.799Z,0.90
2023-05-01T01:11:53.282Z,0.89
2023-05-01T01:16:43.507Z,0.88
2023-05-01T01:21:36.357Z,0.88
2023-05-01T01:26:22.094Z,0.87
2023-05-01T01:31:16.580Z,0.85
2023-05-01T01:36:06.735Z,0.80
2023-05-01T01:40:37.631Z,0.74
2023-05-01T01:45:17.153Z,0.68
2023-05-01T01:49:49.167Z,0.65
2023-05-01T01:54:33.280Z,0.57
2023-05-01T01:58:49.377Z,0.50
2023-05-01T02:03:17.494Z,0.42
2023-05-01T02:08:02.787Z,0.36
2023-05-01T02:12:43.589Z,0.35
2023-05-01T02:17:27.680Z,0.32
2023-05-01T02:22:11.627Z,0.26
2023-05-01T02:26:56.357Z,0.16
2023-05-01T02:31:40.550Z,0.11
2023-05-01T02:36:06.278Z,0.12
2023-05-01T02:40:34.241Z,0.12
2023-05-01T02:44:59.534Z,0.07
2023-05-01T02:49:46.089Z,0.00
2023-05-01T02:54:07.285Z,-0.06
2023-05-01T02:58:32.496Z,-0.11
2023-05-01T03:03:16.577Z,-0.11
2023-05-01T03:08:00.639Z,-0.12
2023-05-01T03:12:40.288Z,-0.12
2023-05-01T03:17:24.965Z,-0.08
2023-05-01T03:22:09.495Z,-0.02
2023-05-01T03:26:56.118Z,0.01
2023-05-01T03:31:40.127Z,0.04
2023-05-01T03:36:24.421Z,0.09
2023-05-01T03:41:10.150Z,0.42
2023-05-01T03:45:54.134Z,1.79
2023-05-01T03:50:33.151Z,3.53
2023-05-01T03:55:18.712Z,5.45
2023-05-01T04:00:02.675Z,7.40
2023-05-01T04:04:34.422Z,9.20
2023-05-01T04:09:18.575Z,11.07
2023-05-01T04:13:44.408Z,12.58
2023-05-01T04:18:08.574Z,14.13
2023-05-01T04:22:40.215Z,15.64
2023-05-01T04:27:11.914Z,17.03
2023-05-01T04:31:19.782Z,18.03
2023-05-01T04:35:36.280Z,19.07
2023-05-01T04:39:26.330Z,19.37
2023-05-01T04:43:31.423Z,17.57
2023-05-01T04:47:50.363Z,14.94
2023-05-01T04:52:01.365Z,13.01
2023-05-01T04:56:10.789Z,11.80
2023-05-01T05:00:50.967Z,10.96
2023-05-01T05:05:34.943Z,10.40
2023-05-01T05:10:19.600Z,9.93
2023-05-01T05:14:28.068Z,9.74
2023-05-01T05:19:00.252Z,9.66
2023-05-01T05:23:41.587Z,9.63
2023-05-01T05:27:53.547Z,9.66
2023-05-01T05:32:32.510Z,9.71
2023-05-01T05:37:16.507Z,9.82
2023-05-01T05:41:28.436Z,10.00
2023-05-01T05:45:48.678Z,10.13
2023-05-01T05:50:33.271Z,10.28
2023-05-01T05:55:17.517Z,10.48
2023-05-01T05:59:43.535Z,10.60
2023-05-01T06:04:27.685Z,10.83
2023-05-01T06:08:33.700Z,11.06
2023-05-01T06:13:08.028Z,11.27
2023-05-01T06:17:44.082Z,11.54
2023-05-01T06:22:23.295Z,11.87
2023-05-01T06:26:42.648Z,12.18
2023-05-01T06:30:49.817Z,12.47
2023-05-01T06:35:11.514Z,12.78
2023-05-01T06:39:21.256Z,13.03
2023-05-01T06:43:29.077Z,13.12
2023-05-01T06:47:16.601Z,13.11
2023-05-01T06:51:22.622Z,13.12
2023-05-01T06:55:28.076Z,13.23
2023-05-01T06:59:34.200Z,13.36
2023-05-01T07:03:38.219Z,13.41
2023-05-01T07:08:01.499Z,13.48
2023-05-01T07:12:09.765Z,13.52
2023-05-01T07:15:46.880Z,13.60
2023-05-01T07:19:49.549Z,13.67
2023-05-01T07:24:01.382Z,13.91
2023-05-01T07:28:09.684Z,13.96
2023-05-01T07:32:09.162Z,13.97
2023-05-01T07:35:59.492Z,14.00
2023-05-01T07:40:07.763Z,13.99
2023-05-01T07:44:12.184Z,13.98
2023-05-01T07:48:38.997Z,14.07
2023-05-01T07:52:55.261Z,14.17
2023-05-01T07:56:58.048Z,14.28
2023-05-01T08:00:45.076Z,14.53
2023-05-01T08:04:40.437Z,14.68
2023-05-01T08:08:09.348Z,14.79
2023-05-01T08:12:15.387Z,14.89
2023-05-01T08:16:22.124Z,15.06
2023-05-01T08:20:00.107Z,15.26
2023-05-01T08:23:27.573Z,15.43
2023-05-01T08:27:04.957Z,15.56
2023-05-01T08:31:11.116Z,15.65
2023-05-01T08:34:48.084Z,15.76
2023-05-01T08:38:44.056Z,15.83
2023-05-01T08:42:32.197Z,15.90
2023-05-01T08:46:11.940Z,15.92
2023-05-01T08:49:44.604Z,15.98
2023-05-01T08:53:28.239Z,16.06
2023-05-01T08:57:12.643Z,16.08
2023-05-01T09:00:45.344Z,16.10
2023-05-01T09:04:26.169Z,16.20
2023-05-01T09:07:53.381Z,16.39
2023-05-01T09:11:16.749Z,16.53
2023-05-01T09:14:48.250Z,16.62
2023-05-01T09:18:17.236Z,16.73
2023-05-01T09:21:41.255Z,16.87
2023-05-01T09:25:39.014Z,16.93
2023-05-01T09:29:16.053Z,16.95
2023-05-01T09:32:47.628Z,16.99
2023-05-01T09:36:23.356Z,17.08
2023-05-01T09:39:55.931Z,17.19
2023-05-01T09:44:03.416Z,17.14
2023-05-01T09:47:38.039Z,17.12
2023-05-01T09:51:20.243Z,17.12
2023-05-01T09:54:51.064Z,17.30
2023-05-01T09:58:31.675Z,17.40
2023-05-01T10:02:02.552Z,17.29
2023-05-01T10:06:04.875Z,17.27
2023-05-01T10:09:48.103Z,17.33
2023-05-01T10:13:34.332Z,17.50
2023-05-01T10:17:10.315Z,17.59
2023-05-01T10:20:41.723Z,17.55
2023-05-01T10:24:06.630Z,17.50
2023-05-01T10:27:33.985Z,17.38
2023-05-01T10:31:05.549Z,17.29
2023-05-01T10:34:31.635Z,17.30
2023-05-01T10:38:26.272Z,17.37
2023-05-01T10:42:28.905Z,17.39
2023-05-01T10:45:55.144Z,17.44
2023-05-01T10:49:25.733Z,17.46
2023-05-01T10:53:22.264Z,17.54
2023-05-01T10:57:36.014Z,17.68
2023-05-01T11:01:38.675Z,17.73
2023-05-01T11:05:37.982Z,17.73
2023-05-01T11:09:22.572Z,17.82
2023-05-01T11:13:17.848Z,17.91
2023-05-01T11:21:17.976Z,18.07
2023-05-01T11:24:50.551Z,18.14
2023-05-01T11:28:20.627Z,18.13
2023-05-01T11:31:52.793Z,18.05
2023-05-01T11:35:36.510Z,18.08
2023-05-01T11:39:20.575Z,18.13
2023-05-01T11:42:56.223Z,18.24
2023-05-01T11:46:47.588Z,18.20
2023-05-01T11:50:11.723Z,18.27
2023-05-01T11:54:21.572Z,18.32
2023-05-01T11:58:06.359Z,18.36
2023-05-01T12:01:37.234Z,18.39
2023-05-01T12:05:14.421Z,18.39
2023-05-01T12:08:51.947Z,18.43
2023-05-01T12:12:37.378Z,18.42
2023-05-01T12:16:05.229Z,18.30
2023-05-01T12:19:31.861Z,18.33
2023-05-01T12:22:59.164Z,18.38
2023-05-01T12:26:29.805Z,18.41
2023-05-01T12:30:10.272Z,18.47
2023-05-01T12:33:36.211Z,18.52
2023-05-01T12:37:03.601Z,18.50
2023-05-01T12:40:37.086Z,18.52
2023-05-01T12:44:04.590Z,18.56
2023-05-01T12:47:46.851Z,18.60
2023-05-01T12:51:32.177Z,18.64
2023-05-01T12:55:02.005Z,18.53
2023-05-01T12:58:58.077Z,18.50
2023-05-01T13:02:48.826Z,18.68
2023-05-01T13:06:14.133Z,18.75
2023-05-01T13:09:42.934Z,18.85
2023-05-01T13:13:16.903Z,18.93
2023-05-01T13:16:47.600Z,18.95
2023-05-01T13:20:41.277Z,18.95
2023-05-01T13:24:09.645Z,19.00
2023-05-01T13:27:37.634Z,19.07
2023-05-01T13:31:02.848Z,19.18
2023-05-01T13:34:43.513Z,19.23
2023-05-01T13:38:11.931Z,19.21
2023-05-01T13:41:59.392Z,19.23
2023-05-01T13:45:32.966Z,19.19
2023-05-01T13:49:09.176Z,19.20
2023-05-01T13:52:33.426Z,19.15
2023-05-01T13:56:00.417Z,19.17
2023-05-01T13:59:38.701Z,19.21
2023-05-01T14:03:26.468Z,19.23
2023-05-01T14:06:53.336Z,19.24
2023-05-01T14:10:17.850Z,19.29
2023-05-01T14:13:45.593Z,19.35
2023-05-01T14:17:18.915Z,19.40
2023-05-01T14:21:08.539Z,19.48
2023-05-01T14:24:36.484Z,19.51
2023-05-01T14:28:03.548Z,19.56
2023-05-01T14:31:43.830Z,19.68
2023-05-01T14:35:11.381Z,19.83
2023-05-01T14:38:47.602Z,19.91
2023-05-01T14:42:22.717Z,20.06
2023-05-01T14:45:50.890Z,20.15
2023-05-01T14:49:26.581Z,20.06
2023-05-01T14:53:02.206Z,19.93
2023-05-01T14:56:50.824Z,19.89
2023-05-01T15:00:20.613Z,19.85
2023-05-01T15:03:49.606Z,19.80
2023-05-01T15:07:19.391Z,19.78
2023-05-01T15:10:54.215Z,19.80
2023-05-01T15:14:21.321Z,19.79
2023-05-01T15:17:48.340Z,19.77
2023-05-01T15:21:15.433Z,19.84
2023-05-01T15:24:44.427Z,19.95
2023-05-01T15:28:10.100Z,20.02
2023-05-01T15:31:46.669Z,20.05
2023-05-01T15:35:11.527Z,20.04
2023-05-01T15:38:38.720Z,20.05
2023-05-01T15:42:05.778Z,20.02
2023-05-01T15:45:34.051Z,20.00
2023-05-01T15:49:05.083Z,19.95
2023-05-01T15:52:32.927Z,19.91
2023-05-01T15:56:06.397Z,19.83
2023-05-01T15:59:38.739Z,19.75
2023-05-01T16:03:19.885Z,19.71
2023-05-01T16:06:59.223Z,19.68
2023-05-01T16:10:27.135Z,19.61
2023-05-01T16:14:13.024Z,19.55
2023-05-01T16:18:01.619Z,19.50
2023-05-01T16:21:27.857Z,19.44
2023-05-01T16:24:57.822Z,19.40
2023-05-01T16:28:22.939Z,19.30
2023-05-01T16:32:11.496Z,19.22
2023-05-01T16:35:59.649Z,19.13
2023-05-01T16:39:31.756Z,19.00
2023-05-01T16:43:05.316Z,18.93
2023-05-01T16:46:34.473Z,18.84
2023-05-01T16:50:03.984Z,18.67
2023-05-01T16:53:37.745Z,18.52
2023-05-01T16:57:24.758Z,18.37
2023-05-01T17:01:03.650Z,18.22
2023-05-01T17:04:34.829Z,18.13
2023-05-01T17:08:03.875Z,18.09
2023-05-01T17:12:11.845Z,18.01
2023-05-01T17:15:47.059Z,17.90
2023-05-01T17:19:25.588Z,17.75
2023-05-01T17:23:10.661Z,17.53
2023-05-01T17:26:59.319Z,17.29
2023-05-01T17:30:30.236Z,17.08
2023-05-01T17:34:25.993Z,16.90
2023-05-01T17:37:59.402Z,16.70
2023-05-01T17:41:52.825Z,16.50
2023-05-01T17:45:55.508Z,16.28
2023-05-01T17:49:32.210Z,16.08
2023-05-01T17:53:26.578Z,15.89
2023-05-01T17:57:13.508Z,15.69
2023-05-01T18:01:06.875Z,15.52
2023-05-01T18:05:03.932Z,15.35
2023-05-01T18:08:50.125Z,15.19
2023-05-01T18:12:47.143Z,15.03
2023-05-01T18:16:59.145Z,14.87
2023-05-01T18:20:57.651Z,14.69
2023-05-01T18:25:04.700Z,14.54
2023-05-01T18:29:10.852Z,14.40
2023-05-01T18:33:09.077Z,14.19
2023-05-01T18:37:13.693Z,13.91
2023-05-01T18:41:33.252Z,13.73
2023-05-01T18:45:40.377Z,13.50
2023-05-01T18:49:57.962Z,13.29
2023-05-01T18:54:21.337Z,13.06
2023-05-01T18:58:25.220Z,12.82
2023-05-01T19:02:36.854Z,12.55
2023-05-01T19:06:48.826Z,12.30
2023-05-01T19:10:47.349Z,12.07
2023-05-01T19:14:53.938Z,11.90
2023-05-01T19:19:38.615Z,11.71
2023-05-01T19:23:47.340Z,11.55
2023-05-01T19:27:55.841Z,11.37
2023-05-01T19:32:30.597Z,11.15
2023-05-01T19:37:16.789Z,11.04
2023-05-01T19:41:31.727Z,11.00
2023-05-01T19:46:16.059Z,11.03
2023-05-01T19:50:40.775Z,11.08
2023-05-01T19:55:25.051Z,11.20
2023-05-01T20:00:04.846Z,11.29
2023-05-01T20:04:19.817Z,11.36
2023-05-01T20:09:03.980Z,11.40
2023-05-01T20:13:19.431Z,11.46
2023-05-01T20:17:25.753Z,11.48
2023-05-01T20:21:50.214Z,11.46
2023-05-01T20:25:56.990Z,11.42
2023-05-01T20:30:22.559Z,11.34
2023-05-01T20:35:06.857Z,11.19
2023-05-01T20:39:35.308Z,11.08
2023-05-01T20:43:59.244Z,10.95
2023-05-01T20:48:30.735Z,10.79
2023-05-01T20:52:54.494Z,10.64
2023-05-01T20:57:21.225Z,10.50
2023-05-01T21:02:05.559Z,10.36
2023-05-01T21:06:14.452Z,10.25
2023-05-01T21:10:40.690Z,10.13
2023-05-01T21:15:04.546Z,9.99
2023-05-01T21:23:11.958Z,9.79
2023-05-01T21:27:19.571Z,9.69
2023-05-01T21:31:44.479Z,9.61
2023-05-01T21:35:49.181Z,9.54
2023-05-01T21:40:15.919Z,9.45
2023-05-01T21:44:46.982Z,9.36
2023-05-01T21:49:31.834Z,9.27
2023-05-01T21:54:17.837Z,9.20
2023-05-01T21:59:01.692Z,9.16
2023-05-01T22:03:25.780Z,9.19
2023-05-01T22:07:49.788Z,9.24
2023-05-01T22:12:34.781Z,9.36
2023-05-01T22:17:19.090Z,9.45
2023-05-01T22:21:43.696Z,9.53
2023-05-01T22:26:25.367Z,9.60
2023-05-01T22:30:49.548Z,9.65
2023-05-01T22:35:33.631Z,9.73
2023-05-01T22:40:12.485Z,9.82
2023-05-01T22:44:44.168Z,9.90
2023-05-01T22:49:28.685Z,9.95
2023-05-01T22:54:13.928Z,9.99
2023-05-01T22:58:57.930Z,10.09
2023-05-01T23:03:38.787Z,10.24
2023-05-01T23:07:52.643Z,10.34
2023-05-01T23:11:56.914Z,10.40
2023-05-01T23:16:24.945Z,10.45
2023-05-01T23:20:41.233Z,10.51
2023-05-01T23:24:48.768Z,10.58
2023-05-01T23:29:32.627Z,10.77
2023-05-01T23:33:58.665Z,10.86
2023-05-01T23:38:23.238Z,10.94
2023-05-01T23:42:47.585Z,10.98
2023-05-01T23:46:55.378Z,10.99
2023-05-01T23:51:02.186Z,11.01
2023-05-01T23:55:05.881Z,11.01
2023-05-01T23:59:45.286Z,10.99
